createdAt,value
2019-04-03T00:00:17.935Z,8.81
2019-04-03T00:02:52.322Z,8.82
2019-04-03T00:05:26.430Z,8.82
2019-04-03T00:07:59.489Z,8.80
2019-04-03T00:10:31.498Z,8.76
2019-04-03T00:13:04.500Z,8.69
2019-04-03T00:15:37.566Z,8.51
2019-04-03T00:18:10.527Z,8.62
2019-04-03T00:20:43.539Z,8.70
2019-04-03T00:23:17.603Z,8.66
2019-04-03T00:25:51.995Z,8.64
2019-04-03T00:28:22.855Z,8.61
2019-04-03T00:30:55.670Z,8.41
2019-04-03T00:33:28.587Z,8.39
2019-04-03T00:36:03.405Z,8.55
2019-04-03T00:38:34.724Z,8.46
2019-04-03T00:41:09.696Z,8.47
2019-04-03T00:43:43.835Z,8.38
2019-04-03T00:46:19.455Z,8.24
2019-04-03T00:48:51.636Z,8.18
2019-04-03T00:51:27.512Z,8.16
2019-04-03T00:53:58.597Z,7.99
2019-04-03T00:56:32.900Z,8.09
2019-04-03T00:59:04.723Z,8.16
2019-04-03T01:01:37.775Z,8.23
2019-04-03T01:04:12.393Z,8.11
2019-04-03T01:06:43.667Z,8.15
2019-04-03T01:09:17.783Z,8.16
2019-04-03T01:11:49.921Z,8.20
2019-04-03T01:14:23.673Z,8.30
2019-04-03T01:16:55.822Z,8.01
2019-04-03T01:19:29.814Z,8.07
2019-04-03T01:22:03.820Z,8.10
2019-04-03T01:24:38.803Z,8.01
2019-04-03T01:27:11.954Z,8.05
2019-04-03T01:29:43.790Z,8.02
2019-04-03T01:32:18.519Z,7.98
2019-04-03T01:34:49.946Z,7.92
2019-04-03T01:37:22.152Z,7.92
2019-04-03T01:39:55.743Z,7.84
2019-04-03T01:42:29.489Z,8.01
2019-04-03T01:45:01.856Z,7.47
2019-04-03T01:47:33.918Z,7.42
2019-04-03T01:50:06.336Z,7.31
2019-04-03T01:52:37.865Z,7.07
2019-04-03T01:55:09.412Z,7.22
2019-04-03T01:57:41.867Z,7.34
2019-04-03T02:00:14.191Z,7.43
2019-04-03T02:02:49.404Z,7.65
2019-04-03T02:05:22.054Z,7.70
2019-04-03T02:07:55.818Z,7.46
2019-04-03T02:10:30.967Z,7.56
2019-04-03T02:13:04.527Z,7.56
2019-04-03T02:15:37.032Z,7.57
2019-04-03T02:18:10.042Z,7.56
2019-04-03T02:20:43.982Z,7.47
2019-04-03T02:23:17.216Z,7.48
2019-04-03T02:25:50.270Z,7.48
2019-04-03T02:28:21.485Z,7.50
2019-04-03T02:30:55.851Z,7.53
2019-04-03T02:40:41.917Z,7.32
2019-04-03T02:43:14.126Z,7.33
2019-04-03T02:45:49.216Z,7.33
2019-04-03T02:48:23.289Z,7.34
2019-04-03T02:50:55.273Z,7.31
2019-04-03T02:53:31.125Z,7.30
2019-04-03T02:56:04.369Z,7.34
2019-04-03T02:58:37.258Z,7.29
2019-04-03T03:01:11.258Z,7.30
2019-04-03T03:03:43.685Z,7.31
2019-04-03T03:06:17.599Z,7.20
2019-04-03T03:08:50.935Z,7.21
2019-04-03T03:11:25.098Z,7.23
2019-04-03T03:13:58.367Z,7.19
2019-04-03T03:16:32.236Z,7.28
2019-04-03T03:19:06.508Z,7.29
2019-04-03T03:21:43.886Z,7.43
2019-04-03T03:24:14.950Z,7.33
2019-04-03T03:26:46.625Z,7.15
2019-04-03T03:29:25.214Z,7.02
2019-04-03T03:32:09.041Z,6.98
2019-04-03T03:34:47.750Z,7.01
2019-04-03T03:37:06.733Z,7.06
2019-04-03T03:39:42.713Z,7.03
2019-04-03T03:42:14.024Z,7.07
2019-04-03T03:44:48.323Z,7.19
2019-04-03T03:47:21.702Z,7.03
2019-04-03T03:49:54.161Z,7.01
2019-04-03T03:52:30.097Z,6.97
2019-04-03T03:55:02.793Z,6.94
2019-04-03T03:57:37.895Z,6.89
2019-04-03T04:00:08.388Z,6.95
2019-04-03T04:02:44.569Z,6.98
2019-04-03T04:05:21.426Z,6.98
2019-04-03T04:07:54.705Z,6.98
2019-04-03T04:10:29.320Z,6.91
2019-04-03T04:13:02.836Z,6.89
2019-04-03T04:15:34.401Z,6.92
2019-04-03T04:18:06.077Z,6.79
2019-04-03T04:20:38.908Z,6.86
2019-04-03T04:23:11.735Z,6.85
2019-04-03T04:25:44.626Z,6.64
2019-04-03T04:28:16.687Z,6.72
2019-04-03T04:30:50.490Z,6.67
2019-04-03T04:33:21.928Z,6.53
2019-04-03T04:35:53.954Z,6.57
2019-04-03T04:38:28.563Z,6.60
2019-04-03T04:41:02.240Z,6.59
2019-04-03T04:43:34.348Z,6.64
2019-04-03T04:46:09.238Z,6.65
2019-04-03T04:48:44.154Z,6.67
2019-04-03T04:51:16.606Z,6.63
2019-04-03T04:53:51.478Z,6.43
2019-04-03T04:56:22.884Z,6.44
2019-04-03T04:58:56.890Z,6.50
2019-04-03T05:01:29.740Z,6.45
2019-04-03T05:04:01.247Z,6.44
2019-04-03T05:06:33.686Z,6.48
2019-04-03T05:09:07.781Z,6.51
2019-04-03T05:11:40.900Z,6.53
2019-04-03T05:14:13.964Z,6.54
2019-04-03T05:16:48.264Z,6.62
2019-04-03T05:19:21.905Z,6.51
2019-04-03T05:21:54.856Z,6.27
2019-04-03T05:24:28.870Z,6.33
2019-04-03T05:27:03.256Z,6.40
2019-04-03T05:29:35.404Z,6.42
2019-04-03T05:32:10.457Z,6.47
2019-04-03T05:34:44.680Z,6.54
2019-04-03T05:37:19.999Z,6.63
2019-04-03T05:39:54.698Z,6.68
2019-04-03T05:42:28.420Z,6.67
2019-04-03T05:44:59.147Z,6.61
2019-04-03T05:47:32.139Z,6.68
2019-04-03T05:50:06.211Z,6.81
2019-04-03T05:52:38.099Z,6.84
2019-04-03T05:55:11.418Z,6.94
2019-04-03T05:57:45.977Z,6.89
2019-04-03T06:00:20.384Z,7.00
2019-04-03T06:02:56.922Z,6.99
2019-04-03T06:05:30.743Z,7.02
2019-04-03T06:08:03.174Z,7.09
2019-04-03T06:10:37.149Z,7.18
2019-04-03T06:13:11.094Z,7.18
2019-04-03T06:15:45.910Z,7.31
2019-04-03T06:18:18.143Z,7.49
2019-04-03T06:20:50.175Z,7.63
2019-04-03T06:23:27.500Z,7.61
2019-04-03T06:26:02.172Z,7.71
2019-04-03T06:28:33.370Z,7.65
2019-04-03T06:31:08.111Z,7.80
2019-04-03T06:33:42.715Z,7.87
2019-04-03T06:36:17.207Z,8.00
2019-04-03T06:38:50.106Z,8.23
2019-04-03T06:41:24.104Z,8.23
2019-04-03T06:43:56.218Z,8.14
2019-04-03T06:46:30.538Z,8.29
2019-04-03T06:49:03.503Z,8.38
2019-04-03T06:51:34.890Z,8.53
2019-04-03T06:54:09.992Z,8.59
2019-04-03T06:56:44.561Z,8.73
2019-04-03T06:59:18.374Z,8.79
2019-04-03T07:01:52.824Z,8.85
2019-04-03T07:04:26.495Z,8.99
2019-04-03T07:06:58.330Z,9.05
2019-04-03T07:09:35.675Z,9.25
2019-04-03T07:12:04.337Z,9.38
2019-04-03T07:14:38.266Z,9.51
2019-04-03T07:17:11.442Z,9.62
2019-04-03T07:19:44.386Z,9.79
2019-04-03T07:22:18.595Z,9.88
2019-04-03T07:24:50.354Z,9.88
2019-04-03T07:27:23.399Z,9.93
2019-04-03T07:29:55.342Z,10.09
2019-04-03T07:32:28.334Z,10.15
2019-04-03T07:35:05.185Z,10.40
2019-04-03T07:37:34.773Z,10.25
2019-04-03T07:40:07.347Z,10.40
2019-04-03T07:42:42.828Z,10.34
2019-04-03T07:48:42.568Z,10.51
2019-04-03T07:51:16.558Z,10.72
2019-04-03T07:53:51.193Z,10.76
2019-04-03T07:56:25.612Z,10.84
2019-04-03T07:58:58.575Z,10.93
2019-04-03T08:01:33.583Z,11.11
2019-04-03T08:04:08.805Z,11.35
2019-04-03T08:06:41.488Z,11.38
2019-04-03T08:09:13.574Z,11.40
2019-04-03T08:11:45.836Z,11.43
2019-04-03T08:14:19.988Z,11.52
2019-04-03T08:16:52.928Z,11.69
2019-04-03T08:19:24.634Z,11.96
2019-04-03T08:22:01.151Z,12.32
2019-04-03T08:24:32.642Z,12.55
2019-04-03T08:27:07.441Z,12.48
2019-04-03T08:29:38.641Z,12.58
2019-04-03T08:32:10.646Z,12.84
2019-04-03T08:34:43.625Z,12.72
2019-04-03T08:37:28.442Z,12.89
2019-04-03T08:39:50.138Z,12.93
2019-04-03T08:42:24.392Z,13.07
2019-04-03T08:45:00.494Z,13.11
2019-04-03T08:47:32.198Z,13.23
2019-04-03T08:50:07.600Z,13.31
2019-04-03T08:52:42.461Z,13.64
2019-04-03T08:55:14.601Z,13.72
2019-04-03T08:57:46.975Z,13.83
2019-04-03T09:00:20.701Z,13.95
2019-04-03T09:02:53.607Z,14.02
2019-04-03T09:05:26.805Z,14.16
2019-04-03T09:07:59.319Z,14.40
2019-04-03T09:10:34.738Z,14.39
2019-04-03T09:13:16.490Z,14.55
2019-04-03T09:15:40.877Z,14.62
2019-04-03T09:18:13.970Z,14.54
2019-04-03T09:20:46.981Z,14.57
2019-04-03T09:23:20.325Z,14.81
2019-04-03T09:25:55.115Z,14.93
2019-04-03T09:28:28.843Z,14.98
2019-04-03T09:31:01.914Z,15.08
2019-04-03T09:33:34.877Z,15.06
2019-04-03T09:36:07.027Z,15.20
2019-04-03T09:38:41.923Z,15.21
2019-04-03T09:41:14.012Z,15.32
2019-04-03T09:43:46.961Z,15.53
2019-04-03T09:46:20.077Z,15.59
2019-04-03T09:48:53.032Z,15.72
2019-04-03T09:51:26.032Z,15.75
2019-04-03T09:53:58.447Z,15.92
2019-04-03T09:56:36.499Z,16.09
2019-04-03T09:59:08.244Z,16.30
2019-04-03T10:01:41.943Z,16.46
2019-04-03T10:04:20.346Z,16.97
2019-04-03T10:06:53.178Z,16.96
2019-04-03T10:09:26.304Z,16.85
2019-04-03T10:11:59.078Z,16.98
2019-04-03T10:14:32.853Z,17.08
2019-04-03T10:17:06.167Z,17.21
2019-04-03T10:19:52.402Z,17.40
2019-04-03T10:22:26.399Z,17.32
2019-04-03T10:25:02.592Z,17.45
2019-04-03T10:27:34.642Z,17.61
2019-04-03T10:30:10.103Z,17.49
2019-04-03T10:32:44.220Z,17.39
2019-04-03T10:35:18.387Z,17.34
2019-04-03T10:37:53.129Z,17.50
2019-04-03T10:40:27.344Z,17.72
2019-04-03T10:43:00.929Z,17.85
2019-04-03T10:45:34.278Z,17.93
2019-04-03T10:48:06.419Z,18.11
2019-04-03T10:50:38.730Z,18.21
2019-04-03T10:53:11.502Z,18.05
2019-04-03T10:55:43.684Z,17.94
2019-04-03T10:58:17.831Z,17.72
2019-04-03T11:00:52.605Z,17.56
2019-04-03T11:03:26.847Z,17.41
2019-04-03T11:06:01.003Z,17.33
2019-04-03T11:08:32.394Z,17.35
2019-04-03T11:11:07.182Z,17.26
2019-04-03T11:13:42.895Z,17.09
2019-04-03T11:16:16.322Z,17.06
2019-04-03T11:18:59.253Z,17.05
2019-04-03T11:21:25.523Z,17.18
2019-04-03T11:23:59.494Z,17.31
2019-04-03T11:26:32.429Z,17.41
2019-04-03T11:29:09.996Z,17.64
2019-04-03T11:31:42.826Z,17.69
2019-04-03T11:34:18.546Z,17.77
2019-04-03T11:36:52.474Z,17.65
2019-04-03T11:39:26.140Z,17.88
2019-04-03T11:41:58.805Z,17.94
2019-04-03T11:44:30.729Z,17.83
2019-04-03T11:47:04.881Z,17.78
2019-04-03T11:49:38.563Z,17.84
2019-04-03T11:52:11.703Z,17.80
2019-04-03T11:54:43.207Z,17.67
2019-04-03T11:57:16.399Z,17.64
2019-04-03T11:59:47.892Z,17.76
2019-04-03T12:02:22.777Z,17.74
2019-04-03T12:04:56.584Z,17.80
2019-04-03T12:07:29.476Z,17.90
2019-04-03T12:10:03.307Z,17.78
2019-04-03T12:12:34.916Z,17.63
2019-04-03T12:15:08.583Z,17.79
2019-04-03T12:17:42.185Z,17.73
2019-04-03T12:20:16.317Z,17.89
2019-04-03T12:22:54.007Z,17.96
2019-04-03T12:25:24.689Z,18.21
2019-04-03T12:27:56.871Z,18.20
2019-04-03T12:30:29.311Z,18.53
2019-04-03T12:33:02.856Z,18.74
2019-04-03T12:35:35.277Z,18.77
2019-04-03T12:38:09.607Z,18.68
2019-04-03T12:40:41.213Z,18.50
2019-04-03T12:43:16.590Z,18.33
2019-04-03T12:45:50.376Z,18.42
2019-04-03T12:48:22.860Z,18.51
2019-04-03T12:50:56.894Z,18.46
2019-04-03T12:53:29.845Z,18.64
2019-04-03T12:56:02.311Z,18.75
2019-04-03T12:58:36.309Z,18.73
2019-04-03T13:01:10.646Z,18.90
2019-04-03T13:03:40.804Z,18.90
2019-04-03T13:06:14.897Z,18.72
2019-04-03T13:08:46.738Z,18.74
2019-04-03T13:11:20.550Z,18.73
2019-04-03T13:13:53.192Z,18.70
2019-04-03T13:16:26.210Z,18.83
2019-04-03T13:18:59.061Z,19.11
2019-04-03T13:21:32.833Z,19.19
2019-04-03T13:24:06.322Z,19.32
2019-04-03T13:26:38.185Z,19.65
2019-04-03T13:29:10.975Z,19.60
2019-04-03T13:31:46.743Z,19.60
2019-04-03T13:34:16.994Z,19.44
2019-04-03T13:36:51.681Z,19.43
2019-04-03T13:39:23.200Z,19.43
2019-04-03T13:41:58.655Z,19.70
2019-04-03T13:44:32.115Z,19.72
2019-04-03T13:47:06.099Z,19.94
2019-04-03T13:49:38.153Z,19.90
2019-04-03T13:52:11.290Z,19.92
2019-04-03T13:54:45.293Z,20.19
2019-04-03T13:57:17.185Z,20.39
2019-04-03T13:59:50.396Z,20.62
2019-04-03T14:02:23.270Z,20.43
2019-04-03T14:04:57.972Z,20.15
2019-04-03T14:07:32.989Z,19.53
2019-04-03T14:10:07.773Z,19.43
2019-04-03T14:12:44.150Z,19.84
2019-04-03T14:15:19.930Z,19.80
2019-04-03T14:17:56.400Z,19.63
2019-04-03T14:20:26.563Z,19.40
2019-04-03T14:23:02.688Z,19.64
2019-04-03T14:25:37.763Z,19.82
2019-04-03T14:28:08.264Z,19.96
2019-04-03T14:30:39.516Z,19.80
2019-04-03T14:33:11.383Z,19.53
2019-04-03T14:35:51.821Z,19.60
2019-04-03T14:38:20.377Z,19.62
2019-04-03T14:40:53.845Z,19.80
2019-04-03T14:43:27.566Z,19.90
2019-04-03T14:45:59.530Z,19.98
2019-04-03T14:48:32.602Z,19.93
2019-04-03T14:51:06.425Z,20.04
2019-04-03T14:53:38.374Z,20.15
2019-04-03T14:56:13.075Z,19.97
2019-04-03T14:58:44.502Z,19.87
2019-04-03T15:01:19.802Z,19.83
2019-04-03T15:03:53.471Z,19.70
2019-04-03T15:06:32.591Z,19.81
2019-04-03T15:09:09.292Z,19.71
2019-04-03T15:11:41.674Z,19.35
2019-04-03T15:14:14.621Z,19.51
2019-04-03T15:16:46.475Z,19.81
2019-04-03T15:19:20.814Z,19.94
2019-04-03T15:21:56.707Z,19.82
2019-04-03T15:24:28.338Z,19.56
2019-04-03T15:27:04.377Z,19.22
2019-04-03T15:29:38.207Z,19.98
2019-04-03T15:32:12.613Z,19.97
2019-04-03T15:34:46.032Z,20.00
2019-04-03T15:37:17.404Z,19.70
2019-04-03T15:39:56.438Z,19.74
2019-04-03T15:42:24.476Z,19.79
2019-04-03T15:44:57.882Z,19.66
2019-04-03T15:47:37.093Z,19.80
2019-04-03T15:50:03.431Z,19.57
2019-04-03T15:52:34.995Z,19.59
2019-04-03T15:55:10.811Z,19.76
2019-04-03T15:57:44.724Z,19.84
2019-04-03T16:00:19.520Z,19.61
2019-04-03T16:02:53.593Z,19.55
2019-04-03T16:05:29.595Z,19.33
2019-04-03T16:08:01.953Z,19.08
2019-04-03T16:10:36.654Z,18.96
2019-04-03T16:13:10.154Z,18.73
2019-04-03T16:15:42.053Z,18.12
2019-04-03T16:18:14.797Z,18.17
2019-04-03T16:20:48.955Z,18.43
2019-04-03T16:23:20.655Z,18.49
2019-04-03T16:25:53.811Z,18.95
2019-04-03T16:28:26.851Z,19.18
2019-04-03T16:30:58.529Z,19.28
2019-04-03T16:33:31.314Z,19.28
2019-04-03T16:36:04.410Z,19.43
2019-04-03T16:38:36.403Z,19.58
2019-04-03T16:41:11.625Z,19.43
2019-04-03T16:43:46.482Z,18.94
2019-04-03T16:46:20.091Z,19.06
2019-04-03T16:48:52.908Z,19.00
2019-04-03T16:51:26.890Z,18.75
2019-04-03T16:54:03.179Z,18.53
2019-04-03T16:56:35.007Z,18.52
2019-04-03T16:59:08.598Z,18.26
2019-04-03T17:01:44.370Z,18.26
2019-04-03T17:04:25.551Z,18.29
2019-04-03T17:06:50.899Z,18.21
2019-04-03T17:09:24.118Z,18.18
2019-04-03T17:11:56.082Z,18.07
2019-04-03T17:14:29.935Z,17.79
2019-04-03T17:17:03.949Z,17.57
2019-04-03T17:19:35.349Z,17.34
2019-04-03T17:22:07.785Z,17.24
2019-04-03T17:24:43.014Z,17.21
2019-04-03T17:27:14.509Z,17.20
2019-04-03T17:29:48.546Z,16.98
2019-04-03T17:32:21.199Z,17.07
2019-04-03T17:34:52.777Z,17.05
2019-04-03T17:37:27.133Z,16.86
2019-04-03T17:39:59.544Z,16.95
2019-04-03T17:42:32.604Z,16.81
2019-04-03T17:45:06.739Z,16.79
2019-04-03T17:47:38.177Z,16.44
2019-04-03T17:50:11.083Z,16.21
2019-04-03T17:52:44.185Z,16.21
2019-04-03T17:55:15.774Z,16.37
2019-04-03T17:57:50.471Z,16.30
2019-04-03T18:00:22.590Z,16.19
2019-04-03T18:02:55.190Z,16.15
2019-04-03T18:05:29.170Z,16.06
2019-04-03T18:08:02.228Z,15.68
2019-04-03T18:10:35.201Z,15.51
2019-04-03T18:13:09.218Z,15.49
2019-04-03T18:15:40.480Z,15.62
2019-04-03T18:18:13.276Z,15.74
2019-04-03T18:20:47.309Z,15.44
2019-04-03T18:23:21.653Z,15.37
2019-04-03T18:25:54.293Z,15.39
2019-04-03T18:28:29.000Z,15.37
2019-04-03T18:31:01.922Z,15.30
2019-04-03T18:33:34.445Z,14.96
2019-04-03T18:36:08.230Z,15.01
2019-04-03T18:38:41.496Z,14.89
2019-04-03T18:41:12.808Z,15.03
2019-04-03T18:43:44.426Z,15.04
2019-04-03T18:46:31.114Z,14.86
2019-04-03T18:52:14.624Z,14.60
2019-04-03T18:54:47.501Z,14.53
2019-04-03T18:57:19.063Z,14.56
2019-04-03T18:59:52.457Z,14.65
2019-04-03T19:02:27.032Z,14.39
2019-04-03T19:05:02.357Z,14.28
2019-04-03T19:07:35.180Z,14.33
2019-04-03T19:10:07.842Z,14.20
2019-04-03T19:12:43.106Z,14.04
2019-04-03T19:15:14.609Z,14.03
2019-04-03T19:17:59.094Z,14.02
2019-04-03T19:20:21.632Z,13.76
2019-04-03T19:23:02.527Z,13.54
2019-04-03T19:25:29.638Z,13.62
2019-04-03T19:28:02.130Z,13.45
2019-04-03T19:30:36.127Z,13.36
2019-04-03T19:33:12.056Z,13.36
2019-04-03T19:35:45.610Z,13.35
2019-04-03T19:38:20.394Z,13.42
2019-04-03T19:40:54.300Z,13.36
2019-04-03T19:43:27.759Z,13.09
2019-04-03T19:45:59.986Z,13.12
2019-04-03T19:48:31.232Z,12.94
2019-04-03T19:51:05.902Z,13.08
2019-04-03T19:53:38.590Z,13.00
2019-04-03T19:56:12.626Z,12.94
2019-04-03T19:58:46.351Z,12.49
2019-04-03T20:01:18.688Z,12.24
2019-04-03T20:03:54.200Z,12.38
2019-04-03T20:06:27.039Z,12.43
2019-04-03T20:09:00.810Z,12.48
2019-04-03T20:11:34.109Z,12.21
2019-04-03T20:14:07.122Z,12.19
2019-04-03T20:16:40.803Z,12.07
2019-04-03T20:19:13.800Z,12.09
2019-04-03T20:21:49.436Z,12.16
2019-04-03T20:24:25.180Z,12.19
2019-04-03T20:26:58.074Z,12.14
2019-04-03T20:29:31.955Z,11.65
2019-04-03T20:32:06.981Z,11.74
2019-04-03T20:34:38.931Z,11.83
2019-04-03T20:37:11.982Z,11.51
2019-04-03T20:39:43.637Z,11.35
2019-04-03T20:42:16.021Z,11.35
2019-04-03T20:44:48.834Z,10.99
2019-04-03T20:47:21.019Z,11.16
2019-04-03T20:49:54.024Z,11.33
2019-04-03T20:52:26.091Z,11.34
2019-04-03T20:54:57.997Z,11.41
2019-04-03T20:57:33.975Z,11.22
2019-04-03T21:00:11.958Z,11.33
2019-04-03T21:02:46.301Z,11.28
2019-04-03T21:05:19.180Z,11.16
2019-04-03T21:07:55.551Z,10.80
2019-04-03T21:10:25.971Z,10.75
2019-04-03T21:12:57.184Z,10.79
2019-04-03T21:15:30.940Z,10.87
2019-04-03T21:18:04.048Z,10.94
2019-04-03T21:20:35.383Z,10.98
2019-04-03T21:23:08.526Z,10.89
2019-04-03T21:25:42.081Z,10.92
2019-04-03T21:28:15.029Z,11.22
2019-04-03T21:30:47.927Z,10.81
2019-04-03T21:33:19.896Z,10.38
2019-04-03T21:35:51.145Z,10.19
2019-04-03T21:38:29.620Z,10.21
2019-04-03T21:41:02.169Z,10.30
2019-04-03T21:43:34.337Z,10.44
2019-04-03T21:46:09.568Z,10.39
2019-04-03T21:48:44.770Z,10.37
2019-04-03T21:51:20.516Z,10.40
2019-04-03T21:53:51.212Z,10.42
2019-04-03T21:56:24.237Z,10.39
2019-04-03T21:58:58.277Z,10.48
2019-04-03T22:01:31.037Z,9.86
2019-04-03T22:04:04.333Z,9.85
2019-04-03T22:06:35.571Z,9.74
2019-04-03T22:09:12.159Z,9.71
2019-04-03T22:11:45.713Z,9.70
2019-04-03T22:14:19.079Z,9.75
2019-04-03T22:16:51.653Z,9.54
2019-04-03T22:19:23.486Z,9.54
2019-04-03T22:21:54.721Z,9.65
2019-04-03T22:24:28.402Z,9.69
2019-04-03T22:27:01.400Z,9.47
2019-04-03T22:29:35.514Z,9.48
2019-04-03T22:32:08.204Z,9.53
2019-04-03T22:34:42.460Z,9.62
2019-04-03T22:37:17.655Z,9.69
2019-04-03T22:39:52.542Z,9.35
2019-04-03T22:42:25.569Z,9.40
2019-04-03T22:45:01.112Z,9.33
2019-04-03T22:47:32.457Z,9.28
2019-04-03T22:50:06.580Z,9.32
2019-04-03T22:52:39.954Z,9.36
2019-04-03T22:55:12.991Z,9.34
2019-04-03T22:57:44.536Z,8.97
2019-04-03T23:00:20.335Z,8.90
2019-04-03T23:02:52.772Z,8.98
2019-04-03T23:05:25.722Z,8.97
2019-04-03T23:07:57.364Z,8.83
2019-04-03T23:10:33.146Z,8.87
2019-04-03T23:13:05.813Z,9.02
2019-04-03T23:15:39.426Z,8.97
2019-04-03T23:18:12.140Z,8.88
2019-04-03T23:20:45.735Z,8.83
2019-04-03T23:23:17.827Z,8.84
2019-04-03T23:25:50.846Z,8.55
2019-04-03T23:28:24.068Z,8.37
2019-04-03T23:30:58.499Z,8.00
2019-04-03T23:33:30.659Z,8.20
2019-04-03T23:36:03.658Z,8.35
2019-04-03T23:38:35.701Z,8.50
2019-04-03T23:41:08.041Z,8.50
2019-04-03T23:43:40.747Z,8.26
2019-04-03T23:46:15.301Z,8.22
2019-04-03T23:48:49.025Z,8.33
2019-04-03T23:51:27.333Z,8.19
2019-04-03T23:54:02.631Z,8.26
2019-04-03T23:56:33.760Z,8.07
2019-04-03T23:59:05.836Z,8.18
